Alpine Marie — H3UD — position and weather

sailwx.info

Track history (hours):
 
Tides and Currents Weather Stations Pressure Air Temp Water Temp Dewpoint Dewpoint Depression Visibility Wind Speed Wind Dir Waves Ship Positions

Alpine Marie

Last reported at 2015-Jan-29 16:33 UTC. Time now 2015-Jan-31 04:06 UTC.
Position S 33°06' E 152°14'.

Length 172 m; draft 7.5 m.

Type: Tanker. MMSI: 353172000.

Date/timePositionNaut miles runAvg speedWind from/ knotsBaromVisibWave heightAir tempDewpointWater temp
2015-Jan-29 16:33S 33°06' E 152°14'6 5.8
2015-Jan-29 15:33S 33°02' E 152°18'6 5.7
2015-Jan-29 14:32S 32°58' E 152°23'5 5.3
2015-Jan-29 13:33S 32°54' E 152°28'5 5.1
2015-Jan-29 12:34S 32°50' E 152°32'5 5.4
2015-Jan-29 11:34S 32°46' E 152°35'5 4.7
2015-Jan-29 10:33S 32°42' E 152°39'6 6.0
2015-Jan-29 09:33S 32°37' E 152°43'7 6.9
2015-Jan-29 08:32S 32°31' E 152°48'5 0.1
2015-Jan-27 05:22S 32°29' E 152°53'810.2
2015-Jan-27 04:33S 32°36' E 152°46'1010.5
2015-Jan-27 03:33S 32°45' E 152°41'9 9.4
2015-Jan-27 02:33S 32°50' E 152°31'1211.6
2015-Jan-27 01:33S 32°53' E 152°18'1312.5
2015-Jan-27 00:33S 32°56' E 152°04'1111.5
2015-Jan-26 23:34S 32°55' E 151°50'4 3.6
2015-Jan-26 22:32S 32°54' E 151°46'0 0.0
2015-Jan-26 18:09S 32°54' E 151°46'0 0.0
2015-Jan-26 12:15S 32°54' E 151°46'0 0.0
2015-Jan-25 09:21S 32°54' E 151°46'0 0.0
2015-Jan-24 23:12S 32°54' E 151°46'3 3.7
2015-Jan-24 22:22S 32°55' E 151°50'5 6.3
2015-Jan-24 21:31S 32°60' E 151°51'3 0.8
2015-Jan-24 17:33S 33°01' E 151°48'0 0.0
2015-Jan-24 05:15S 33°01' E 151°48'0 0.0
2015-Jan-24 03:33S 33°01' E 151°48'0 0.0
2015-Jan-24 02:09S 33°01' E 151°48'  
2015-Jan-21 02:33S 33°01' E 151°48'0 0.0
2015-Jan-21 01:21S 33°01' E 151°48'0 0.0
2015-Jan-20 21:09S 33°01' E 151°48'0 0.0
2015-Jan-20 13:15S 33°01' E 151°48'0 0.0
2015-Jan-20 05:15S 33°01' E 151°48'0 0.0
2015-Jan-20 00:15S 33°01' E 151°48'0 0.0
2015-Jan-19 23:09S 33°01' E 151°48'0 0.0
2015-Jan-19 22:27S 33°01' E 151°48'  
Track history (hours):
 
Tides and Currents Weather Stations Pressure Air Temp Water Temp Dewpoint Dewpoint Depression Visibility Wind Speed Wind Dir Waves Ship Positions

Alpine Marie

Last reported at 2015-Jan-29 16:33 UTC. Time now 2015-Jan-31 04:06 UTC.
Position S 33°06' E 152°14'.

Length 172 m; draft 7.5 m.

Type: Tanker. MMSI: 353172000.

Date/timePositionNaut miles runAvg speedWind from/ knotsBaromVisibWave heightAir tempDewpointWater temp
2015-Jan-29 16:33S 33°06' E 152°14'6 5.8
2015-Jan-29 15:33S 33°02' E 152°18'6 5.7
2015-Jan-29 14:32S 32°58' E 152°23'5 5.3
2015-Jan-29 13:33S 32°54' E 152°28'5 5.1
2015-Jan-29 12:34S 32°50' E 152°32'5 5.4
2015-Jan-29 11:34S 32°46' E 152°35'5 4.7
2015-Jan-29 10:33S 32°42' E 152°39'6 6.0
2015-Jan-29 09:33S 32°37' E 152°43'7 6.9
2015-Jan-29 08:32S 32°31' E 152°48'5 0.1
2015-Jan-27 05:22S 32°29' E 152°53'810.2
2015-Jan-27 04:33S 32°36' E 152°46'1010.5
2015-Jan-27 03:33S 32°45' E 152°41'9 9.4
2015-Jan-27 02:33S 32°50' E 152°31'1211.6
2015-Jan-27 01:33S 32°53' E 152°18'1312.5
2015-Jan-27 00:33S 32°56' E 152°04'1111.5
2015-Jan-26 23:34S 32°55' E 151°50'4 3.6
2015-Jan-26 22:32S 32°54' E 151°46'0 0.0
2015-Jan-26 18:09S 32°54' E 151°46'0 0.0
2015-Jan-26 12:15S 32°54' E 151°46'0 0.0
2015-Jan-25 09:21S 32°54' E 151°46'0 0.0
2015-Jan-24 23:12S 32°54' E 151°46'3 3.7
2015-Jan-24 22:22S 32°55' E 151°50'5 6.3
2015-Jan-24 21:31S 32°60' E 151°51'3 0.8
2015-Jan-24 17:33S 33°01' E 151°48'0 0.0
2015-Jan-24 05:15S 33°01' E 151°48'0 0.0
2015-Jan-24 03:33S 33°01' E 151°48'0 0.0
2015-Jan-24 02:09S 33°01' E 151°48'  
2015-Jan-21 02:33S 33°01' E 151°48'0 0.0
2015-Jan-21 01:21S 33°01' E 151°48'0 0.0
2015-Jan-20 21:09S 33°01' E 151°48'0 0.0
2015-Jan-20 13:15S 33°01' E 151°48'0 0.0
2015-Jan-20 05:15S 33°01' E 151°48'0 0.0
2015-Jan-20 00:15S 33°01' E 151°48'0 0.0
2015-Jan-19 23:09S 33°01' E 151°48'0 0.0
2015-Jan-19 22:27S 33°01' E 151°48'  

Dump ship's entire track history